Report METAR

LIPF - Ferrara (aut), Italy
Distance from station: SSO 23km
Dati ricevuti: 12/12/2018 16:55
Sereno
Sereno
 Vento da Variabile
Vento: Variabile 0 km/h
Temperatura: 3°C
P.to Rugiada: -3°C
Umidità: 65%
Barometro: 1019 hPa
Summary: Sereno
Visibility: superiore a 10 km
2018/12/12 15:55 LIPF 121555Z /////KT CAVOK 03/M03 Q1019
LIPU - Padova (civ/It-A, Italy
Distance from station: N 43km
Dati ricevuti: 12/12/2018 08:00
DATI Obsoleti
Sereno
Sereno
 Vento da Variabile
Vento: Variabile 6 km/h
Temperatura: -3°C
P.to Rugiada: -5°C
Umidità: 86%
Barometro: 1020 hPa
Summary: Sereno
Visibility: superiore a 10 km
2018/12/12 07:00 LIPU 120700Z VRB03KT CAVOK M03/M05 Q1020